createdAt,value
2023-02-05T00:00:23.056Z,103332.56
2023-02-05T00:02:51.595Z,103326.00
2023-02-05T00:05:20.433Z,103314.94
2023-02-05T00:07:50.501Z,103304.06
2023-02-05T00:10:19.287Z,103299.22
2023-02-05T00:12:47.823Z,103303.22
2023-02-05T00:15:16.408Z,103307.69
2023-02-05T00:17:44.950Z,103295.63
2023-02-05T00:20:13.893Z,103298.03
2023-02-05T00:22:42.440Z,103293.19
2023-02-05T00:25:12.413Z,103295.78
2023-02-05T00:27:41.021Z,103291.28
2023-02-05T00:30:10.892Z,103286.44
2023-02-05T00:32:39.441Z,103287.84
2023-02-05T00:35:08.149Z,103276.78
2023-02-05T00:37:36.723Z,103271.59
2023-02-05T00:40:06.311Z,103264.19
2023-02-05T00:42:36.237Z,103255.38
2023-02-05T00:45:05.277Z,103255.56
2023-02-05T00:47:33.850Z,103247.78
2023-02-05T00:50:02.401Z,103252.97
2023-02-05T00:52:30.994Z,103253.13
2023-02-05T00:54:59.539Z,103247.41
2023-02-05T00:57:28.148Z,103242.44
2023-02-05T00:59:58.059Z,103241.53
2023-02-05T01:02:26.676Z,103236.38
2023-02-05T01:04:56.180Z,103233.09
2023-02-05T01:07:24.742Z,103235.34
2023-02-05T01:09:53.440Z,103219.78
2023-02-05T01:12:22.011Z,103206.69
2023-02-05T01:14:50.655Z,103205.66
2023-02-05T01:17:20.635Z,103203.78
2023-02-05T01:19:49.197Z,103204.81
2023-02-05T01:22:17.774Z,103208.59
2023-02-05T01:24:46.334Z,103218.44
2023-02-05T01:27:14.937Z,103221.19
2023-02-05T01:29:43.604Z,103219.44
2023-02-05T01:32:12.179Z,103217.19
2023-02-05T01:34:42.080Z,103229.78
2023-02-05T01:37:10.986Z,103219.94
2023-02-05T01:39:39.578Z,103223.06
2023-02-05T01:42:19.455Z,103222.38
2023-02-05T01:45:34.152Z,103225.47
2023-02-05T01:48:04.483Z,103225.81
2023-02-05T01:50:38.046Z,103224.47
2023-02-05T01:53:10.690Z,103221.69
2023-02-05T01:55:44.918Z,103214.63
2023-02-05T01:58:14.450Z,103221.69
2023-02-05T02:00:43.934Z,103212.88
2023-02-05T02:03:15.015Z,103205.06
2023-02-05T02:05:44.968Z,103219.59
2023-02-05T02:08:14.548Z,103221.31
2023-02-05T02:10:44.910Z,103226.84
2023-02-05T02:13:14.924Z,103222.31
2023-02-05T02:15:43.895Z,103227.88
2023-02-05T02:18:29.367Z,103228.91
2023-02-05T02:21:32.993Z,103231.16
2023-02-05T02:24:49.439Z,103232.56
2023-02-05T02:27:45.753Z,103231.31
2023-02-05T02:30:24.939Z,103233.91
2023-02-05T02:33:05.173Z,103239.09
2023-02-05T02:35:42.691Z,103227.19
2023-02-05T02:38:19.251Z,103220.47
2023-02-05T02:40:53.998Z,103217.72
2023-02-05T02:43:29.602Z,103218.94
2023-02-05T02:46:06.450Z,103217.69
2023-02-05T02:48:39.203Z,103209.97
2023-02-05T02:51:10.384Z,103204.09
2023-02-05T02:53:42.594Z,103194.56
2023-02-05T02:56:14.094Z,103203.56
2023-02-05T02:58:47.884Z,103211.66
2023-02-05T03:01:18.333Z,103199.25
2023-02-05T03:03:53.077Z,103192.81
2023-02-05T03:06:23.265Z,103191.97
2023-02-05T03:08:57.047Z,103179.50
2023-02-05T03:11:27.120Z,103185.47
2023-02-05T03:13:57.800Z,103187.22
2023-02-05T03:16:28.748Z,103177.72
2023-02-05T03:18:58.460Z,103166.63
2023-02-05T03:21:31.649Z,103155.28
2023-02-05T03:24:00.211Z,103151.53
2023-02-05T03:26:31.918Z,103160.88
2023-02-05T03:29:07.511Z,103149.78
2023-02-05T03:31:45.274Z,103160.16
2023-02-05T03:34:28.374Z,103163.22
2023-02-05T03:37:05.647Z,103160.56
2023-02-05T03:39:49.708Z,103169.13
2023-02-05T03:42:34.952Z,103155.50
2023-02-05T03:45:29.490Z,103156.19
2023-02-05T03:48:20.601Z,103150.41
2023-02-05T03:50:54.683Z,103142.53
2023-02-05T03:53:29.140Z,103137.53
2023-02-05T03:56:05.748Z,103134.97
2023-02-05T03:58:41.504Z,103145.16
2023-02-05T04:01:13.310Z,103152.66
2023-02-05T04:03:42.023Z,103162.75
2023-02-05T04:06:10.634Z,103165.28
2023-02-05T04:08:39.194Z,103157.00
2023-02-05T04:11:09.532Z,103164.72
2023-02-05T04:13:38.204Z,103167.50
2023-02-05T04:16:06.991Z,103172.31
2023-02-05T04:18:36.953Z,103177.38
2023-02-05T04:21:06.033Z,103184.25
2023-02-05T04:23:34.650Z,103180.94
2023-02-05T04:26:03.187Z,103179.25
2023-02-05T04:28:31.743Z,103168.03
2023-02-05T04:31:00.362Z,103175.63
2023-02-05T04:33:28.972Z,103186.66
2023-02-05T04:36:01.715Z,103179.63
2023-02-05T04:38:30.573Z,103175.66
2023-02-05T04:40:59.241Z,103190.28
2023-02-05T04:43:27.861Z,103178.78
2023-02-05T04:45:56.545Z,103175.69
2023-02-05T04:48:25.142Z,103170.63
2023-02-05T04:50:53.699Z,103175.78
2023-02-05T04:53:23.645Z,103171.72
2023-02-05T04:55:52.190Z,103166.81
2023-02-05T04:58:21.489Z,103167.50
2023-02-05T05:00:50.182Z,103162.28
2023-02-05T05:03:18.735Z,103151.63
2023-02-05T05:05:47.831Z,103164.22
2023-02-05T05:08:16.394Z,103171.81
2023-02-05T05:10:46.322Z,103174.41
2023-02-05T05:13:14.872Z,103170.47
2023-02-05T05:15:43.448Z,103169.09
2023-02-05T05:18:12.023Z,103161.53
2023-02-05T05:20:42.620Z,103163.44
2023-02-05T05:23:11.299Z,103164.78
2023-02-05T05:25:43.230Z,103166.63
2023-02-05T05:28:13.805Z,103158.81
2023-02-05T05:30:44.266Z,103151.22
2023-02-05T05:33:13.264Z,103147.59
2023-02-05T05:35:41.836Z,103142.47
2023-02-05T05:38:10.636Z,103148.31
2023-02-05T05:40:56.797Z,103145.56
2023-02-05T05:43:43.963Z,103141.22
2023-02-05T05:46:12.667Z,103148.31
2023-02-05T05:48:41.263Z,103149.50
2023-02-05T05:51:09.841Z,103139.22
2023-02-05T05:53:38.388Z,103139.31
2023-02-05T05:56:07.608Z,103142.81
2023-02-05T05:58:37.597Z,103139.88
2023-02-05T06:01:07.590Z,103143.81
2023-02-05T06:03:36.150Z,103135.03
2023-02-05T06:06:06.198Z,103135.50
2023-02-05T06:08:35.178Z,103135.91
2023-02-05T06:11:03.975Z,103136.13
2023-02-05T06:13:32.523Z,103140.91
2023-02-05T06:16:02.500Z,103130.88
2023-02-05T06:18:31.441Z,103137.72
2023-02-05T06:21:00.095Z,103142.50
2023-02-05T06:23:28.633Z,103134.72
2023-02-05T06:25:57.229Z,103138.03
2023-02-05T06:28:25.999Z,103137.09
2023-02-05T06:30:54.651Z,103134.19
2023-02-05T06:33:24.667Z,103128.16
2023-02-05T06:35:53.274Z,103130.56
2023-02-05T06:38:21.836Z,103124.56
2023-02-05T06:40:50.852Z,103113.94
2023-02-05T06:43:19.439Z,103121.56
2023-02-05T06:45:48.418Z,103113.44
2023-02-05T06:48:18.213Z,103123.16
2023-02-05T06:50:48.274Z,103118.91
2023-02-05T06:53:16.797Z,103121.88
2023-02-05T06:55:45.143Z,103117.91
2023-02-05T06:58:13.414Z,103110.06
2023-02-05T07:00:41.909Z,103119.19
2023-02-05T07:03:10.148Z,103116.25
2023-02-05T07:05:38.453Z,103117.19
2023-02-05T07:08:08.207Z,103115.84
2023-02-05T07:10:36.523Z,103119.94
2023-02-05T07:13:06.020Z,103119.09
2023-02-05T07:15:37.440Z,103123.69
2023-02-05T07:18:06.330Z,103116.53
2023-02-05T07:20:36.177Z,103120.31
2023-02-05T07:23:05.548Z,103119.47
2023-02-05T07:25:37.883Z,103129.59
2023-02-05T07:28:07.229Z,103112.38
2023-02-05T07:30:36.436Z,103113.72
2023-02-05T07:33:04.958Z,103109.78
2023-02-05T07:35:37.880Z,103115.09
2023-02-05T07:38:06.262Z,103110.38
2023-02-05T07:40:37.757Z,103111.44
2023-02-05T07:43:06.345Z,103104.69
2023-02-05T07:45:35.250Z,103117.53
2023-02-05T07:48:03.965Z,103117.00
2023-02-05T07:50:32.562Z,103118.31
2023-02-05T07:53:01.128Z,103122.28
2023-02-05T07:55:29.718Z,103114.75
2023-02-05T07:57:59.650Z,103125.81
2023-02-05T08:00:28.000Z,103127.75
2023-02-05T08:02:56.315Z,103125.59
2023-02-05T08:05:24.629Z,103117.84
2023-02-05T08:07:52.969Z,103127.41
2023-02-05T08:10:21.404Z,103122.38
2023-02-05T08:12:49.755Z,103120.00
2023-02-05T08:15:19.703Z,103131.78
2023-02-05T08:17:48.313Z,103125.84
2023-02-05T08:20:17.043Z,103138.28
2023-02-05T08:22:45.875Z,103148.34
2023-02-05T08:25:16.041Z,103155.22
2023-02-05T08:27:46.156Z,103160.84
2023-02-05T08:30:17.049Z,103168.56
2023-02-05T08:32:51.143Z,103174.69
2023-02-05T08:35:19.923Z,103176.41
2023-02-05T08:37:48.827Z,103168.59
2023-02-05T08:40:17.578Z,103179.03
2023-02-05T08:42:46.810Z,103187.09
2023-02-05T08:45:15.385Z,103171.22
2023-02-05T08:47:44.058Z,103179.94
2023-02-05T08:50:14.137Z,103171.72
2023-02-05T08:52:43.234Z,103191.09
2023-02-05T08:55:11.945Z,103187.09
2023-02-05T08:57:40.887Z,103189.16
2023-02-05T09:00:10.744Z,103187.00
2023-02-05T09:02:39.357Z,103177.75
2023-02-05T09:05:09.633Z,103193.94
2023-02-05T09:07:40.471Z,103201.03
2023-02-05T09:10:10.690Z,103201.66
2023-02-05T09:12:39.373Z,103197.13
2023-02-05T09:15:09.033Z,103193.13
2023-02-05T09:17:37.666Z,103191.44
2023-02-05T09:20:06.737Z,103191.28
2023-02-05T09:22:35.337Z,103202.13
2023-02-05T09:25:05.599Z,103210.34
2023-02-05T09:27:34.346Z,103214.56
2023-02-05T09:30:03.038Z,103206.84
2023-02-05T09:32:31.637Z,103209.47
2023-02-05T09:35:00.188Z,103207.91
2023-02-05T09:37:28.771Z,103210.94
2023-02-05T09:40:20.405Z,103210.63
2023-02-05T09:42:55.356Z,103211.47
2023-02-05T09:45:38.951Z,103213.66
2023-02-05T09:48:28.766Z,103199.47
2023-02-05T09:50:58.796Z,103216.56
2023-02-05T09:53:40.082Z,103212.66
2023-02-05T09:56:10.985Z,103215.34
2023-02-05T09:58:45.115Z,103210.69
2023-02-05T10:01:20.291Z,103219.03
2023-02-05T10:03:53.387Z,103216.19
2023-02-05T10:06:44.058Z,103220.03
2023-02-05T10:09:33.567Z,103214.00
2023-02-05T10:12:12.656Z,103218.66
2023-02-05T10:14:54.899Z,103213.97
2023-02-05T10:17:38.723Z,103225.38
2023-02-05T10:20:26.615Z,103213.91
2023-02-05T10:23:09.711Z,103198.69
2023-02-05T10:25:50.194Z,103210.63
2023-02-05T10:28:34.242Z,103198.91
2023-02-05T10:31:11.553Z,103199.59
2023-02-05T10:33:49.861Z,103191.28
2023-02-05T10:36:22.627Z,103183.59
2023-02-05T10:38:52.940Z,103192.47
2023-02-05T10:41:27.551Z,103179.16
2023-02-05T10:44:04.464Z,103179.47
2023-02-05T10:46:38.280Z,103177.91
2023-02-05T10:49:13.116Z,103193.03
2023-02-05T10:51:43.508Z,103182.13
2023-02-05T10:54:22.211Z,103183.69
2023-02-05T10:56:50.817Z,103187.53
2023-02-05T10:59:25.839Z,103182.72
2023-02-05T11:01:58.754Z,103186.78
2023-02-05T11:04:38.923Z,103193.72
2023-02-05T11:07:13.427Z,103173.38
2023-02-05T11:09:42.350Z,103186.72
2023-02-05T11:12:28.833Z,103191.94
2023-02-05T11:15:00.029Z,103196.00
2023-02-05T11:17:39.100Z,103204.28
2023-02-05T11:20:22.637Z,103184.28
2023-02-05T11:23:05.681Z,103194.13
2023-02-05T11:25:34.337Z,103186.06
2023-02-05T11:28:04.784Z,103197.69
2023-02-05T11:30:52.686Z,103194.25
2023-02-05T11:33:30.768Z,103182.16
2023-02-05T11:36:02.856Z,103182.50
2023-02-05T11:38:43.398Z,103192.34
2023-02-05T11:41:14.777Z,103191.72
2023-02-05T11:43:50.240Z,103191.19
2023-02-05T11:46:22.281Z,103185.78
2023-02-05T11:48:57.927Z,103194.53
2023-02-05T11:51:45.824Z,103201.63
2023-02-05T11:54:21.933Z,103204.59
2023-02-05T11:57:06.212Z,103205.69
2023-02-05T11:59:36.158Z,103212.19
2023-02-05T12:02:37.713Z,103197.03
2023-02-05T12:05:18.895Z,103212.81
2023-02-05T12:07:52.487Z,103211.50
2023-02-05T12:10:26.837Z,103213.91
2023-02-05T12:13:07.216Z,103212.16
2023-02-05T12:15:42.792Z,103213.72
2023-02-05T12:18:24.985Z,103210.44
2023-02-05T12:21:14.334Z,103211.53
2023-02-05T12:24:06.338Z,103207.78
2023-02-05T12:26:38.387Z,103208.09
2023-02-05T12:29:19.877Z,103208.53
2023-02-05T12:31:57.933Z,103228.31
2023-02-05T12:34:33.417Z,103206.72
2023-02-05T12:37:27.286Z,103215.13
2023-02-05T12:40:01.217Z,103233.09
2023-02-05T12:42:36.582Z,103217.38
2023-02-05T12:45:27.384Z,103241.47
2023-02-05T12:48:08.012Z,103236.97
2023-02-05T12:50:54.251Z,103229.06
2023-02-05T12:53:47.273Z,103237.88
2023-02-05T12:56:41.417Z,103254.69
2023-02-05T12:59:16.721Z,103243.16
2023-02-05T13:01:52.271Z,103256.03
2023-02-05T13:04:26.252Z,103248.63
2023-02-05T13:07:00.369Z,103256.00
2023-02-05T13:09:38.635Z,103263.78
2023-02-05T13:12:12.625Z,103249.59
2023-02-05T13:14:45.418Z,103256.50
2023-02-05T13:17:20.507Z,103261.41
2023-02-05T13:19:55.413Z,103267.06
2023-02-05T13:22:45.994Z,103259.16
2023-02-05T13:25:39.527Z,103252.34
2023-02-05T13:28:43.590Z,103259.41
2023-02-05T13:31:19.820Z,103255.94
2023-02-05T13:33:48.993Z,103266.59
2023-02-05T13:37:00.366Z,103281.44
2023-02-05T13:39:59.850Z,103286.31
2023-02-05T13:42:50.704Z,103292.03
2023-02-05T13:46:00.703Z,103302.00
2023-02-05T13:48:56.859Z,103299.78
2023-02-05T13:51:45.386Z,103311.56
2023-02-05T13:54:54.926Z,103316.88
2023-02-05T13:57:57.901Z,103343.53
2023-02-05T14:00:28.911Z,103329.94
2023-02-05T14:02:59.279Z,103312.00
2023-02-05T14:05:33.346Z,103324.59
2023-02-05T14:08:03.345Z,103328.00
2023-02-05T14:10:34.832Z,103331.38
2023-02-05T14:13:19.685Z,103337.31
2023-02-05T14:15:50.314Z,103347.06
2023-02-05T14:18:51.238Z,103348.41
2023-02-05T14:21:50.676Z,103353.94
2023-02-05T14:24:39.915Z,103350.94
2023-02-05T14:27:37.353Z,103342.97
2023-02-05T14:30:57.309Z,103344.38
2023-02-05T14:33:36.559Z,103342.56
2023-02-05T14:36:33.761Z,103358.34
2023-02-05T14:39:05.939Z,103353.16
2023-02-05T14:41:50.771Z,103358.28
2023-02-05T14:44:24.142Z,103349.69
2023-02-05T14:47:10.310Z,103367.72
2023-02-05T14:49:44.185Z,103367.44
2023-02-05T14:52:29.840Z,103369.28
2023-02-05T14:55:02.555Z,103365.28
2023-02-05T14:57:41.074Z,103363.09
2023-02-05T15:00:25.787Z,103373.84
2023-02-05T15:03:24.784Z,103374.03
2023-02-05T15:05:59.561Z,103370.94
2023-02-05T15:08:49.000Z,103380.88
2023-02-05T15:11:29.886Z,103374.03
2023-02-05T15:14:33.115Z,103385.88
2023-02-05T15:17:36.985Z,103380.34
2023-02-05T15:20:17.809Z,103380.75
2023-02-05T15:22:52.137Z,103393.41
2023-02-05T15:25:33.859Z,103389.78
2023-02-05T15:28:06.371Z,103390.59
2023-02-05T15:30:47.398Z,103392.31
2023-02-05T15:33:24.053Z,103394.34
2023-02-05T15:35:53.669Z,103400.75
2023-02-05T15:38:32.529Z,103399.84
2023-02-05T15:41:05.701Z,103411.59
2023-02-05T15:43:34.317Z,103409.13
2023-02-05T15:46:05.502Z,103413.66
2023-02-05T15:48:36.626Z,103415.50
2023-02-05T15:51:18.171Z,103423.34
2023-02-05T15:53:51.417Z,103424.44
2023-02-05T15:56:26.936Z,103430.03
2023-02-05T15:58:58.869Z,103442.66
2023-02-05T16:01:30.591Z,103440.16
2023-02-05T16:03:59.490Z,103434.59
2023-02-05T16:06:30.168Z,103437.78
2023-02-05T16:09:00.115Z,103444.09
2023-02-05T16:11:30.895Z,103441.09
2023-02-05T16:14:13.605Z,103448.00
2023-02-05T16:16:48.142Z,103445.66
2023-02-05T16:19:22.676Z,103452.75
2023-02-05T16:21:59.054Z,103452.78
2023-02-05T16:24:32.987Z,103454.97
2023-02-05T16:27:06.901Z,103460.25
2023-02-05T16:29:47.750Z,103456.75
2023-02-05T16:32:22.939Z,103458.88
2023-02-05T16:34:52.083Z,103462.19
2023-02-05T16:37:30.377Z,103460.34
2023-02-05T16:40:03.324Z,103457.78
2023-02-05T16:42:37.855Z,103471.44
2023-02-05T16:45:21.244Z,103474.50
2023-02-05T16:48:22.701Z,103478.97
2023-02-05T16:50:52.202Z,103485.88
2023-02-05T16:53:26.441Z,103488.22
2023-02-05T16:56:00.007Z,103503.25
2023-02-05T16:58:34.711Z,103509.50
2023-02-05T17:01:05.076Z,103503.16
2023-02-05T17:03:42.182Z,103505.59
2023-02-05T17:06:15.566Z,103525.63
2023-02-05T17:08:52.155Z,103519.69
2023-02-05T17:11:39.649Z,103521.50
2023-02-05T17:14:28.094Z,103529.66
2023-02-05T17:16:59.301Z,103534.31
2023-02-05T17:19:29.169Z,103528.47
2023-02-05T17:22:19.722Z,103536.78
2023-02-05T17:24:51.678Z,103538.88
2023-02-05T17:27:31.289Z,103542.38
2023-02-05T17:30:01.214Z,103553.19
2023-02-05T17:32:30.979Z,103549.13
2023-02-05T17:37:28.151Z,103566.50
2023-02-05T17:39:57.804Z,103563.19
2023-02-05T17:42:31.117Z,103550.75
2023-02-05T17:44:59.703Z,103557.66
2023-02-05T17:47:28.249Z,103552.69
2023-02-05T17:49:57.952Z,103556.94
2023-02-05T17:52:26.506Z,103562.88
2023-02-05T17:54:55.105Z,103579.28
2023-02-05T17:57:26.308Z,103581.84
2023-02-05T17:59:56.807Z,103572.31
2023-02-05T18:02:25.412Z,103579.09
2023-02-05T18:04:54.113Z,103589.34
2023-02-05T18:07:29.321Z,103586.31
2023-02-05T18:09:58.661Z,103594.00
2023-02-05T18:12:28.655Z,103601.00
2023-02-05T18:14:57.320Z,103593.25
2023-02-05T18:17:25.933Z,103605.41
2023-02-05T18:19:54.851Z,103592.09
2023-02-05T18:22:23.471Z,103592.44
2023-02-05T18:24:52.086Z,103600.44
2023-02-05T18:27:20.638Z,103589.34
2023-02-05T18:29:50.587Z,103586.00
2023-02-05T18:32:19.162Z,103591.34
2023-02-05T18:34:47.815Z,103591.22
2023-02-05T18:37:16.693Z,103585.16
2023-02-05T18:39:46.109Z,103601.94
2023-02-05T18:42:14.786Z,103603.63
2023-02-05T18:44:43.425Z,103609.16
2023-02-05T18:47:14.009Z,103603.97
2023-02-05T18:49:42.621Z,103608.22
2023-02-05T18:52:13.106Z,103602.69
2023-02-05T18:54:41.728Z,103616.19
2023-02-05T18:57:12.340Z,103623.88
2023-02-05T18:59:41.710Z,103627.81
2023-02-05T19:02:13.053Z,103629.44
2023-02-05T19:04:42.548Z,103645.25
2023-02-05T19:07:11.089Z,103636.59
2023-02-05T19:09:39.632Z,103634.50
2023-02-05T19:12:08.420Z,103648.19
2023-02-05T19:14:37.023Z,103646.25
2023-02-05T19:17:06.089Z,103646.03
2023-02-05T19:19:36.058Z,103666.97
2023-02-05T19:22:06.390Z,103668.19
2023-02-05T19:24:36.168Z,103664.75
2023-02-05T19:27:04.922Z,103669.34
2023-02-05T19:29:38.098Z,103671.13
2023-02-05T19:32:07.070Z,103684.72
2023-02-05T19:34:38.517Z,103682.38
2023-02-05T19:37:07.160Z,103699.09
2023-02-05T19:39:35.761Z,103694.69
2023-02-05T19:42:04.327Z,103694.41
2023-02-05T19:44:32.904Z,103697.19
2023-02-05T19:47:01.531Z,103699.41
2023-02-05T19:49:30.125Z,103695.56
2023-02-05T19:52:01.448Z,103697.63
2023-02-05T19:54:30.477Z,103700.75
2023-02-05T19:56:59.046Z,103700.19
2023-02-05T19:59:27.943Z,103700.25
2023-02-05T20:01:56.739Z,103686.34
2023-02-05T20:04:28.712Z,103701.59
2023-02-05T20:07:00.426Z,103703.22
2023-02-05T20:09:29.574Z,103692.66
2023-02-05T20:11:58.190Z,103712.63
2023-02-05T20:14:27.055Z,103705.97
2023-02-05T20:16:55.671Z,103708.72
2023-02-05T20:19:24.203Z,103711.19
2023-02-05T20:21:52.831Z,103714.13
2023-02-05T20:24:22.784Z,103724.13
2023-02-05T20:26:53.087Z,103725.84
2023-02-05T20:29:38.953Z,103720.66
2023-02-05T20:32:08.876Z,103717.28
2023-02-05T20:34:39.500Z,103720.66
2023-02-05T20:37:10.412Z,103724.38
2023-02-05T20:39:42.624Z,103724.19
2023-02-05T20:42:13.546Z,103713.75
2023-02-05T20:44:43.631Z,103716.63
2023-02-05T20:47:13.999Z,103705.56
2023-02-05T20:49:43.539Z,103706.59
2023-02-05T20:52:12.492Z,103719.00
2023-02-05T20:54:42.551Z,103724.03
2023-02-05T20:57:11.270Z,103718.38
2023-02-05T20:59:39.834Z,103734.97
2023-02-05T21:02:08.948Z,103731.69
2023-02-05T21:04:38.003Z,103720.25
2023-02-05T21:07:06.583Z,103719.84
2023-02-05T21:09:35.427Z,103721.47
2023-02-05T21:12:05.787Z,103729.16
2023-02-05T21:14:34.477Z,103735.22
2023-02-05T21:17:03.120Z,103734.91
2023-02-05T21:19:31.721Z,103732.13
2023-02-05T21:22:00.548Z,103733.81
2023-02-05T21:24:29.130Z,103750.34
2023-02-05T21:26:57.929Z,103750.63
2023-02-05T21:29:27.843Z,103751.38
2023-02-05T21:31:56.559Z,103751.03
2023-02-05T21:34:27.257Z,103760.19
2023-02-05T21:36:56.849Z,103761.06
2023-02-05T21:39:26.367Z,103750.50
2023-02-05T21:41:55.093Z,103756.16
2023-02-05T21:44:23.862Z,103758.59
2023-02-05T21:46:55.342Z,103765.28
2023-02-05T21:49:24.056Z,103768.03
2023-02-05T21:51:53.469Z,103763.28
2023-02-05T21:54:25.354Z,103779.22
2023-02-05T21:56:54.420Z,103769.50
2023-02-05T21:59:23.020Z,103782.13
2023-02-05T22:01:53.530Z,103792.44
2023-02-05T22:04:22.159Z,103789.81
2023-02-05T22:06:52.352Z,103785.31
2023-02-05T22:09:21.363Z,103781.31
2023-02-05T22:11:51.972Z,103791.44
2023-02-05T22:14:20.558Z,103795.81
2023-02-05T22:16:49.198Z,103789.56
2023-02-05T22:19:19.112Z,103793.19
2023-02-05T22:21:47.670Z,103800.28
2023-02-05T22:24:18.712Z,103803.03
2023-02-05T22:26:48.252Z,103792.94
2023-02-05T22:29:19.130Z,103798.63
2023-02-05T22:31:50.792Z,103793.66
2023-02-05T22:34:21.264Z,103798.03
2023-02-05T22:36:50.030Z,103792.81
2023-02-05T22:39:18.600Z,103800.94
2023-02-05T22:41:47.227Z,103793.16
2023-02-05T22:44:15.784Z,103786.66
2023-02-05T22:46:45.254Z,103797.34
2023-02-05T22:49:15.715Z,103801.28
2023-02-05T22:51:46.432Z,103794.84
2023-02-05T22:54:15.949Z,103802.56
2023-02-05T22:56:44.911Z,103806.94
2023-02-05T22:59:13.943Z,103808.09
2023-02-05T23:01:42.690Z,103814.44
2023-02-05T23:04:11.854Z,103810.72
2023-02-05T23:06:42.349Z,103811.75
2023-02-05T23:09:14.349Z,103816.19
2023-02-05T23:11:43.766Z,103809.38
2023-02-05T23:14:14.024Z,103808.34
2023-02-05T23:16:45.330Z,103809.41
2023-02-05T23:19:18.407Z,103809.09
2023-02-05T23:21:47.524Z,103820.28
2023-02-05T23:24:18.485Z,103831.44
2023-02-05T23:26:50.746Z,103826.22
2023-02-05T23:29:19.750Z,103827.22
2023-02-05T23:31:49.084Z,103823.63
2023-02-05T23:34:17.638Z,103819.84
2023-02-05T23:36:46.233Z,103824.06
2023-02-05T23:39:17.996Z,103825.50
2023-02-05T23:41:46.675Z,103832.88
2023-02-05T23:44:18.175Z,103835.63
2023-02-05T23:46:48.713Z,103819.38
2023-02-05T23:49:20.964Z,103821.59
2023-02-05T23:51:50.324Z,103823.63
2023-02-05T23:54:21.122Z,103833.88
2023-02-05T23:56:49.973Z,103846.50
2023-02-05T23:59:18.930Z,103840.25
